Wright, Iowa
Current Conditions -  °F | °C
As of 12:15 PM on Sunday 25 Jan 2015 (Local Time) from KOOA Reporting Station
Drizzle Drizzle  
Wind Chill: 19°   Ceiling: 1400
Heat Index: 31°   Visibility: 7mi
Dew Point: 28°   Wind: 17mph
Humidity: 91%   Direction: 20°NNE
Pressure: 29.85"   Gusts: NA
Location:  41.3158°N, 92.6258°W
Report Text: KOOA 251815Z AUTO 02015KT 7SM -DZ SCT009 BKN014 OVC026 M01/M02 A2985 RMK AO2 T10071020
Loading
Personal Weather Stations






























Interactive Weather Map New forecast layout! Learn more

10-Day Weather Forecast

Advertisements
Track Severe Weather on mobile